createdAt,value
2024-02-23T00:09:35.255Z,89
2024-02-23T00:24:35.168Z,89
2024-02-23T00:39:35.126Z,90
2024-02-23T00:54:35.139Z,90
2024-02-23T01:09:35.071Z,90
2024-02-23T01:24:35.074Z,91
2024-02-23T01:39:35.072Z,91
2024-02-23T01:54:35.057Z,91
2024-02-23T02:09:35.069Z,91
2024-02-23T02:24:34.981Z,91
2024-02-23T02:39:35.011Z,91
2024-02-23T02:54:34.972Z,91
2024-02-23T03:09:35.028Z,92
2024-02-23T03:24:34.984Z,92
2024-02-23T03:39:34.974Z,92
2024-02-23T03:54:35.009Z,92
2024-02-23T04:09:34.931Z,92
2024-02-23T04:24:34.932Z,92
2024-02-23T04:39:34.980Z,92
2024-02-23T04:54:34.895Z,92
2024-02-23T05:09:34.929Z,92
2024-02-23T05:24:34.878Z,92
2024-02-23T05:39:34.921Z,93
2024-02-23T05:54:34.829Z,93
2024-02-23T06:09:34.859Z,93
2024-02-23T06:24:34.818Z,93
2024-02-23T06:39:34.868Z,93
2024-02-23T06:54:34.836Z,93
2024-02-23T07:09:34.884Z,93
2024-02-23T07:24:34.866Z,93
2024-02-23T07:39:34.812Z,94
2024-02-23T07:54:34.777Z,94
2024-02-23T08:09:34.788Z,92
2024-02-23T08:24:34.769Z,91
2024-02-23T08:39:34.770Z,89
2024-02-23T08:54:34.719Z,88
2024-02-23T09:09:34.752Z,88
2024-02-23T09:24:34.666Z,89
2024-02-23T09:39:34.717Z,90
2024-02-23T09:54:34.698Z,91
2024-02-23T10:09:38.720Z,92
2024-02-23T10:24:34.587Z,93
2024-02-23T10:39:34.643Z,94
2024-02-23T10:54:34.572Z,94
2024-02-23T11:09:34.580Z,93
2024-02-23T11:24:34.555Z,92
2024-02-23T11:39:34.554Z,89
2024-02-23T11:54:34.523Z,89
2024-02-23T12:09:34.472Z,87
2024-02-23T12:24:34.431Z,88
2024-02-23T12:39:34.414Z,85
2024-02-23T12:54:34.382Z,85
2024-02-23T13:09:34.439Z,88
2024-02-23T13:24:34.344Z,89
2024-02-23T13:39:34.361Z,89
2024-02-23T13:54:34.288Z,90
2024-02-23T14:09:34.298Z,91
2024-02-23T14:24:34.267Z,92
2024-02-23T14:39:34.292Z,93
2024-02-23T14:54:34.259Z,92
2024-02-23T15:09:34.246Z,92
2024-02-23T15:24:34.174Z,92
2024-02-23T15:39:34.202Z,91
2024-02-23T15:54:34.147Z,89
2024-02-23T16:09:34.183Z,88
2024-02-23T16:24:34.133Z,85
2024-02-23T16:39:34.112Z,83
2024-02-23T16:54:34.154Z,81
2024-02-23T17:09:34.088Z,82
2024-02-23T17:24:34.044Z,84
2024-02-23T17:39:34.069Z,85
2024-02-23T17:54:34.002Z,85
2024-02-23T18:09:34.057Z,86
2024-02-23T18:24:33.967Z,87
2024-02-23T18:39:34.029Z,88
2024-02-23T18:54:33.978Z,88
2024-02-23T19:09:34.001Z,89
2024-02-23T19:24:33.899Z,90
2024-02-23T19:39:33.948Z,90
2024-02-23T19:54:34.058Z,90
2024-02-23T20:09:33.871Z,91
2024-02-23T20:24:33.852Z,91
2024-02-23T20:39:33.855Z,90
2024-02-23T20:54:33.795Z,90
2024-02-23T21:09:33.930Z,90
2024-02-23T21:24:33.802Z,90
2024-02-23T21:39:33.793Z,90
2024-02-23T21:54:33.824Z,89
2024-02-23T22:09:33.814Z,89
2024-02-23T22:24:33.753Z,86
2024-02-23T22:39:33.779Z,84
2024-02-23T22:54:33.709Z,80
2024-02-23T23:09:33.691Z,77
2024-02-23T23:24:33.699Z,75
2024-02-23T23:39:33.669Z,72
2024-02-23T23:54:33.646Z,70
